sensor_id;sensor_type;location;lat;lon;timestamp;pressure;altitude;pressure_sealevel;temperature;humidity
38163;BME280;23977;53.078;18.248;2023-03-19T00:02:08;101009.16;;;0.24;100.00
38163;BME280;23977;53.078;18.248;2023-03-19T00:04:36;101192.06;;;1.39;100.00
38163;BME280;23977;53.078;18.248;2023-03-19T00:07:03;101214.28;;;1.47;100.00
38163;BME280;23977;53.078;18.248;2023-03-19T00:09:30;101298.72;;;1.99;100.00
38163;BME280;23977;53.078;18.248;2023-03-19T00:11:56;101172.09;;;1.22;100.00
38163;BME280;23977;53.078;18.248;2023-03-19T00:14:22;101072.75;;;0.57;100.00
38163;BME280;23977;53.078;18.248;2023-03-19T00:16:51;101317.06;;;1.84;100.00
38163;BME280;23977;53.078;18.248;2023-03-19T00:19:17;101083.25;;;0.41;100.00
38163;BME280;23977;53.078;18.248;2023-03-19T00:21:43;101130.19;;;0.60;100.00
38163;BME280;23977;53.078;18.248;2023-03-19T00:24:08;101261.06;;;1.55;100.00
38163;BME280;23977;53.078;18.248;2023-03-19T00:26:35;101134.09;;;0.68;100.00
38163;BME280;23977;53.078;18.248;2023-03-19T00:29:02;101223.06;;;1.16;100.00
38163;BME280;23977;53.078;18.248;2023-03-19T00:31:28;101286.41;;;1.55;100.00
38163;BME280;23977;53.078;18.248;2023-03-19T00:34:01;101067.88;;;0.34;100.00
38163;BME280;23977;53.078;18.248;2023-03-19T00:37:34;101298.69;;;1.70;100.00
38163;BME280;23977;53.078;18.248;2023-03-19T00:44:45;101294.94;;;1.74;100.00
38163;BME280;23977;53.078;18.248;2023-03-19T00:52:03;101291.75;;;1.53;100.00
38163;BME280;23977;53.078;18.248;2023-03-19T00:56:21;101301.41;;;1.53;100.00
38163;BME280;23977;53.078;18.248;2023-03-19T01:00:13;101299.41;;;1.72;100.00
38163;BME280;23977;53.078;18.248;2023-03-19T01:04:06;101111.78;;;0.61;100.00
38163;BME280;23977;53.078;18.248;2023-03-19T01:08:04;101291.50;;;1.58;100.00
38163;BME280;23977;53.078;18.248;2023-03-19T01:11:16;101129.53;;;0.56;100.00
38163;BME280;23977;53.078;18.248;2023-03-19T01:13:44;101280.69;;;1.48;100.00
38163;BME280;23977;53.078;18.248;2023-03-19T01:17:57;101158.34;;;0.56;100.00
38163;BME280;23977;53.078;18.248;2023-03-19T01:36:34;101223.47;;;0.94;100.00
38163;BME280;23977;53.078;18.248;2023-03-19T01:55:16;101305.31;;;1.45;100.00
38163;BME280;23977;53.078;18.248;2023-03-19T02:07:38;101329.44;;;1.36;100.00
38163;BME280;23977;53.078;18.248;2023-03-19T02:30:23;101282.94;;;1.24;100.00
38163;BME280;23977;53.078;18.248;2023-03-19T02:37:23;101280.31;;;1.24;100.00
38163;BME280;23977;53.078;18.248;2023-03-19T02:44:50;101281.91;;;1.26;100.00
38163;BME280;23977;53.078;18.248;2023-03-19T03:06:28;101266.38;;;0.91;100.00
38163;BME280;23977;53.078;18.248;2023-03-19T03:09:53;101277.03;;;1.20;100.00
38163;BME280;23977;53.078;18.248;2023-03-19T03:13:09;101258.41;;;1.25;100.00
38163;BME280;23977;53.078;18.248;2023-03-19T03:17:01;101016.19;;;-0.24;100.00
38163;BME280;23977;53.078;18.248;2023-03-19T03:20:31;101313.03;;;1.48;100.00
38163;BME280;23977;53.078;18.248;2023-03-19T03:32:52;101290.50;;;1.44;100.00
38163;BME280;23977;53.078;18.248;2023-03-19T03:40:43;101306.91;;;1.48;100.00
38163;BME280;23977;53.078;18.248;2023-03-19T03:44:17;101272.97;;;1.31;100.00
38163;BME280;23977;53.078;18.248;2023-03-19T03:48:12;101304.22;;;1.50;100.00
38163;BME280;23977;53.078;18.248;2023-03-19T03:56:14;101313.13;;;1.47;100.00
38163;BME280;23977;53.078;18.248;2023-03-19T03:59:41;101305.91;;;1.51;100.00
38163;BME280;23977;53.078;18.248;2023-03-19T04:03:19;101309.09;;;1.56;100.00
38163;BME280;23977;53.078;18.248;2023-03-19T04:07:12;101304.00;;;1.69;100.00
38163;BME280;23977;53.078;18.248;2023-03-19T04:13:25;101126.91;;;1.02;100.00
38163;BME280;23977;53.078;18.248;2023-03-19T04:16:51;101279.75;;;1.79;100.00
38163;BME280;23977;53.078;18.248;2023-03-19T04:20:58;101310.75;;;1.73;100.00
38163;BME280;23977;53.078;18.248;2023-03-19T04:25:08;101307.25;;;1.58;100.00
38163;BME280;23977;53.078;18.248;2023-03-19T04:28:59;101312.53;;;1.42;100.00
38163;BME280;23977;53.078;18.248;2023-03-19T04:32:59;101319.16;;;1.63;100.00
38163;BME280;23977;53.078;18.248;2023-03-19T04:36:30;101270.13;;;1.03;100.00
38163;BME280;23977;53.078;18.248;2023-03-19T04:40:11;101281.16;;;1.24;100.00
38163;BME280;23977;53.078;18.248;2023-03-19T04:47:39;101331.16;;;1.37;100.00
38163;BME280;23977;53.078;18.248;2023-03-19T04:50:45;101135.28;;;0.15;100.00
38163;BME280;23977;53.078;18.248;2023-03-19T04:53:57;101260.06;;;0.96;100.00
38163;BME280;23977;53.078;18.248;2023-03-19T04:57:01;101273.66;;;1.02;100.00
38163;BME280;23977;53.078;18.248;2023-03-19T04:59:41;101190.72;;;0.55;100.00
38163;BME280;23977;53.078;18.248;2023-03-19T05:02:59;101061.84;;;0.02;100.00
38163;BME280;23977;53.078;18.248;2023-03-19T05:06:00;101308.78;;;1.62;100.00
38163;BME280;23977;53.078;18.248;2023-03-19T05:09:05;101184.25;;;0.77;100.00
38163;BME280;23977;53.078;18.248;2023-03-19T05:11:32;101161.13;;;0.53;100.00
38163;BME280;23977;53.078;18.248;2023-03-19T05:13:58;101235.34;;;1.16;100.00
38163;BME280;23977;53.078;18.248;2023-03-19T05:16:24;101061.41;;;0.10;100.00
38163;BME280;23977;53.078;18.248;2023-03-19T05:18:49;101310.06;;;1.85;100.00
38163;BME280;23977;53.078;18.248;2023-03-19T05:21:16;101070.50;;;0.34;100.00
38163;BME280;23977;53.078;18.248;2023-03-19T05:23:42;101277.91;;;1.96;100.00
38163;BME280;23977;53.078;18.248;2023-03-19T05:26:08;101184.22;;;1.53;100.00
38163;BME280;23977;53.078;18.248;2023-03-19T05:28:34;101148.34;;;1.68;100.00
38163;BME280;23977;53.078;18.248;2023-03-19T05:31:01;101166.91;;;1.79;100.00
38163;BME280;23977;53.078;18.248;2023-03-19T05:33:27;101185.47;;;2.19;100.00
38163;BME280;23977;53.078;18.248;2023-03-19T05:35:53;101322.50;;;3.11;100.00
38163;BME280;23977;53.078;18.248;2023-03-19T05:38:19;101258.44;;;2.85;100.00
38163;BME280;23977;53.078;18.248;2023-03-19T05:40:45;101047.53;;;1.72;100.00
38163;BME280;23977;53.078;18.248;2023-03-19T05:43:11;101259.00;;;3.17;100.00
38163;BME280;23977;53.078;18.248;2023-03-19T05:45:40;101072.75;;;2.16;100.00
38163;BME280;23977;53.078;18.248;2023-03-19T05:48:06;101053.78;;;1.98;100.00
38163;BME280;23977;53.078;18.248;2023-03-19T05:50:33;101209.34;;;3.12;100.00
38163;BME280;23977;53.078;18.248;2023-03-19T05:52:59;101324.47;;;3.89;100.00
38163;BME280;23977;53.078;18.248;2023-03-19T05:55:25;100993.91;;;1.91;100.00
38163;BME280;23977;53.078;18.248;2023-03-19T05:57:51;101081.34;;;2.60;100.00
38163;BME280;23977;53.078;18.248;2023-03-19T06:00:18;101236.00;;;3.74;100.00
38163;BME280;23977;53.078;18.248;2023-03-19T06:02:43;101187.34;;;3.54;100.00
38163;BME280;23977;53.078;18.248;2023-03-19T06:05:10;101064.38;;;3.04;99.72
38163;BME280;23977;53.078;18.248;2023-03-19T06:07:36;101005.22;;;2.46;100.00
38163;BME280;23977;53.078;18.248;2023-03-19T06:10:08;100974.72;;;2.43;100.00
38163;BME280;23977;53.078;18.248;2023-03-19T06:12:36;101109.84;;;3.32;100.00
38163;BME280;23977;53.078;18.248;2023-03-19T06:15:06;101133.22;;;3.62;100.00
38163;BME280;23977;53.078;18.248;2023-03-19T06:17:41;101162.03;;;4.02;99.66
38163;BME280;23977;53.078;18.248;2023-03-19T06:20:15;101336.81;;;5.15;98.90
38163;BME280;23977;53.078;18.248;2023-03-19T06:22:42;101225.25;;;4.65;97.57
38163;BME280;23977;53.078;18.248;2023-03-19T06:25:18;101186.75;;;4.38;97.47
38163;BME280;23977;53.078;18.248;2023-03-19T06:27:53;101249.34;;;4.85;96.04
38163;BME280;23977;53.078;18.248;2023-03-19T06:30:33;101140.69;;;4.68;92.54
38163;BME280;23977;53.078;18.248;2023-03-19T06:33:10;101357.47;;;6.41;90.13
38163;BME280;23977;53.078;18.248;2023-03-19T06:35:50;101163.28;;;5.88;88.10
38163;BME280;23977;53.078;18.248;2023-03-19T06:38:28;101361.53;;;8.21;84.09
38163;BME280;23977;53.078;18.248;2023-03-19T06:40:56;101359.28;;;8.99;75.71
38163;BME280;23977;53.078;18.248;2023-03-19T06:43:28;101221.56;;;8.65;73.26
38163;BME280;23977;53.078;18.248;2023-03-19T06:46:03;101166.28;;;8.51;71.59
38163;BME280;23977;53.078;18.248;2023-03-19T06:48:33;101358.81;;;9.93;70.71
38163;BME280;23977;53.078;18.248;2023-03-19T06:51:01;101364.97;;;10.04;68.94
38163;BME280;23977;53.078;18.248;2023-03-19T06:53:31;101055.66;;;8.42;68.18
38163;BME280;23977;53.078;18.248;2023-03-19T06:56:08;101213.09;;;9.69;66.21
38163;BME280;23977;53.078;18.248;2023-03-19T06:58:35;101369.31;;;11.27;61.63
38163;BME280;23977;53.078;18.248;2023-03-19T07:01:04;101184.88;;;10.97;59.84
38163;BME280;23977;53.078;18.248;2023-03-19T07:03:33;101370.88;;;13.90;54.23
38163;BME280;23977;53.078;18.248;2023-03-19T07:06:11;101078.22;;;13.27;49.89
38163;BME280;23977;53.078;18.248;2023-03-19T07:08:41;101087.81;;;14.71;44.34
38163;BME280;23977;53.078;18.248;2023-03-19T07:11:22;101094.34;;;16.41;41.65
38163;BME280;23977;53.078;18.248;2023-03-19T07:13:49;101088.88;;;16.71;40.15
38163;BME280;23977;53.078;18.248;2023-03-19T07:16:21;101171.53;;;19.00;35.39
38163;BME280;23977;53.078;18.248;2023-03-19T07:19:05;101212.91;;;20.84;33.93
38163;BME280;23977;53.078;18.248;2023-03-19T07:22:12;101210.06;;;22.24;30.34
38163;BME280;23977;53.078;18.248;2023-03-19T07:28:12;101341.16;;;23.52;29.41
38163;BME280;23977;53.078;18.248;2023-03-19T07:30:38;101238.25;;;23.32;28.15
38163;BME280;23977;53.078;18.248;2023-03-19T07:33:05;101333.06;;;25.91;27.31
38163;BME280;23977;53.078;18.248;2023-03-19T07:35:32;101340.59;;;26.56;25.01
38163;BME280;23977;53.078;18.248;2023-03-19T07:37:58;101310.88;;;27.64;24.25
38163;BME280;23977;53.078;18.248;2023-03-19T07:40:25;101339.09;;;27.37;24.59
38163;BME280;23977;53.078;18.248;2023-03-19T07:42:51;101310.34;;;29.82;21.60
38163;BME280;23977;53.078;18.248;2023-03-19T07:45:17;101260.47;;;31.01;20.38
38163;BME280;23977;53.078;18.248;2023-03-19T07:47:43;101263.16;;;29.19;21.17
38163;BME280;23977;53.078;18.248;2023-03-19T07:50:10;101332.00;;;29.58;22.33
38163;BME280;23977;53.078;18.248;2023-03-19T07:52:36;101299.81;;;28.87;22.99
38163;BME280;23977;53.078;18.248;2023-03-19T07:55:02;101317.78;;;28.09;23.08
38163;BME280;23977;53.078;18.248;2023-03-19T07:57:28;101277.66;;;28.25;22.93
38163;BME280;23977;53.078;18.248;2023-03-19T07:59:54;101291.13;;;29.31;21.96
38163;BME280;23977;53.078;18.248;2023-03-19T08:02:19;101338.56;;;29.73;21.44
38163;BME280;23977;53.078;18.248;2023-03-19T08:04:45;101291.56;;;28.71;22.12
38163;BME280;23977;53.078;18.248;2023-03-19T08:07:11;101278.72;;;28.82;21.79
38163;BME280;23977;53.078;18.248;2023-03-19T08:09:37;101290.72;;;28.66;22.37
38163;BME280;23977;53.078;18.248;2023-03-19T08:12:05;101308.59;;;28.99;22.02
38163;BME280;23977;53.078;18.248;2023-03-19T08:14:32;101264.22;;;29.02;21.75
38163;BME280;23977;53.078;18.248;2023-03-19T08:16:58;101339.44;;;29.78;21.59
38163;BME280;23977;53.078;18.248;2023-03-19T08:19:24;101301.28;;;29.92;21.15
38163;BME280;23977;53.078;18.248;2023-03-19T08:21:49;101313.34;;;29.70;21.22
38163;BME280;23977;53.078;18.248;2023-03-19T08:24:15;101298.28;;;29.32;22.02
38163;BME280;23977;53.078;18.248;2023-03-19T08:26:42;101311.81;;;28.70;22.45
38163;BME280;23977;53.078;18.248;2023-03-19T08:29:08;101326.69;;;29.00;22.48
38163;BME280;23977;53.078;18.248;2023-03-19T08:31:34;101310.06;;;29.58;21.78
38163;BME280;23977;53.078;18.248;2023-03-19T08:34:00;101192.44;;;29.26;21.32
38163;BME280;23977;53.078;18.248;2023-03-19T08:36:29;101327.25;;;31.06;20.94
38163;BME280;23977;53.078;18.248;2023-03-19T08:38:56;101271.75;;;30.44;20.99
38163;BME280;23977;53.078;18.248;2023-03-19T08:41:23;101324.34;;;31.66;20.44
38163;BME280;23977;53.078;18.248;2023-03-19T08:43:49;101303.28;;;33.15;19.19
38163;BME280;23977;53.078;18.248;2023-03-19T08:46:16;101289.25;;;34.24;17.88
38163;BME280;23977;53.078;18.248;2023-03-19T08:48:42;101280.00;;;35.30;17.40
38163;BME280;23977;53.078;18.248;2023-03-19T08:51:08;101314.34;;;35.83;16.79
38163;BME280;23977;53.078;18.248;2023-03-19T08:53:34;101184.16;;;35.74;16.41
38163;BME280;23977;53.078;18.248;2023-03-19T08:56:03;101234.56;;;36.77;15.70
38163;BME280;23977;53.078;18.248;2023-03-19T08:58:29;101257.41;;;37.65;15.24
38163;BME280;23977;53.078;18.248;2023-03-19T09:01:03;101294.50;;;39.10;14.22
38163;BME280;23977;53.078;18.248;2023-03-19T09:03:30;101251.50;;;38.86;14.70
38163;BME280;23977;53.078;18.248;2023-03-19T09:06:01;101268.00;;;39.83;13.87
38163;BME280;23977;53.078;18.248;2023-03-19T09:08:27;101296.59;;;40.29;13.26
38163;BME280;23977;53.078;18.248;2023-03-19T09:10:54;101303.09;;;39.96;13.75
38163;BME280;23977;53.078;18.248;2023-03-19T09:13:20;101258.94;;;39.86;13.55
38163;BME280;23977;53.078;18.248;2023-03-19T09:15:46;101288.72;;;38.52;14.18
38163;BME280;23977;53.078;18.248;2023-03-19T09:18:12;101273.34;;;39.88;13.64
38163;BME280;23977;53.078;18.248;2023-03-19T09:20:38;101289.25;;;39.41;13.74
38163;BME280;23977;53.078;18.248;2023-03-19T09:23:04;101248.25;;;39.51;13.81
38163;BME280;23977;53.078;18.248;2023-03-19T09:25:30;101276.50;;;37.19;15.32
38163;BME280;23977;53.078;18.248;2023-03-19T09:27:55;101244.28;;;37.27;15.29
38163;BME280;23977;53.078;18.248;2023-03-19T09:30:21;101284.72;;;34.56;16.68
38163;BME280;23977;53.078;18.248;2023-03-19T09:32:47;101237.00;;;34.51;17.02
38163;BME280;23977;53.078;18.248;2023-03-19T09:35:13;101276.63;;;34.96;17.01
38163;BME280;23977;53.078;18.248;2023-03-19T09:37:38;101288.97;;;35.13;17.34
38163;BME280;23977;53.078;18.248;2023-03-19T09:40:05;101245.97;;;35.29;16.85
38163;BME280;23977;53.078;18.248;2023-03-19T09:42:50;101285.91;;;34.78;17.24
38163;BME280;23977;53.078;18.248;2023-03-19T09:45:19;101266.69;;;35.18;16.74
38163;BME280;23977;53.078;18.248;2023-03-19T09:47:47;101279.28;;;35.47;16.79
38163;BME280;23977;53.078;18.248;2023-03-19T09:50:20;101275.59;;;34.92;16.90
38163;BME280;23977;53.078;18.248;2023-03-19T09:52:55;101250.38;;;35.62;17.14
38163;BME280;23977;53.078;18.248;2023-03-19T09:57:55;101249.13;;;34.27;18.11
38163;BME280;23977;53.078;18.248;2023-03-19T10:00:29;101270.47;;;33.33;18.84
38163;BME280;23977;53.078;18.248;2023-03-19T10:03:04;101277.97;;;33.79;18.09
38163;BME280;23977;53.078;18.248;2023-03-19T10:09:09;101278.72;;;33.66;18.48
38163;BME280;23977;53.078;18.248;2023-03-19T10:17:28;101264.66;;;34.09;17.74
38163;BME280;23977;53.078;18.248;2023-03-19T10:20:09;101260.00;;;32.78;19.03
38163;BME280;23977;53.078;18.248;2023-03-19T10:22:50;101267.69;;;32.81;19.30
38163;BME280;23977;53.078;18.248;2023-03-19T10:25:23;101272.09;;;31.27;20.22
38163;BME280;23977;53.078;18.248;2023-03-19T10:28:11;101238.97;;;29.93;21.16
38163;BME280;23977;53.078;18.248;2023-03-19T10:30:38;101199.75;;;27.90;22.63
38163;BME280;23977;53.078;18.248;2023-03-19T10:33:19;101282.25;;;27.12;24.66
38163;BME280;23977;53.078;18.248;2023-03-19T10:35:54;101184.41;;;25.15;26.11
38163;BME280;23977;53.078;18.248;2023-03-19T10:38:24;101261.38;;;24.65;27.71
38163;BME280;23977;53.078;18.248;2023-03-19T10:43:42;101203.56;;;23.04;29.83
38163;BME280;23977;53.078;18.248;2023-03-19T10:46:12;101204.63;;;23.03;29.89
38163;BME280;23977;53.078;18.248;2023-03-19T10:48:44;101199.75;;;22.32;30.71
38163;BME280;23977;53.078;18.248;2023-03-19T10:51:13;101284.47;;;22.65;30.85
38163;BME280;23977;53.078;18.248;2023-03-19T10:53:41;101141.38;;;21.31;31.10
38163;BME280;23977;53.078;18.248;2023-03-19T10:56:18;101211.25;;;21.91;31.56
38163;BME280;23977;53.078;18.248;2023-03-19T11:01:45;101211.91;;;21.11;33.08
38163;BME280;23977;53.078;18.248;2023-03-19T11:04:22;101213.94;;;20.90;34.04
38163;BME280;23977;53.078;18.248;2023-03-19T11:07:20;101202.94;;;20.33;33.93
38163;BME280;23977;53.078;18.248;2023-03-19T11:10:03;101142.88;;;19.52;35.24
38163;BME280;23977;53.078;18.248;2023-03-19T11:12:38;101139.34;;;19.58;34.21
38163;BME280;23977;53.078;18.248;2023-03-19T11:15:21;101174.88;;;19.75;33.68
38163;BME280;23977;53.078;18.248;2023-03-19T11:18:06;101259.19;;;19.57;35.47
38163;BME280;23977;53.078;18.248;2023-03-19T11:20:43;101090.97;;;18.57;35.54
38163;BME280;23977;53.078;18.248;2023-03-19T11:23:29;100925.00;;;17.67;35.94
38163;BME280;23977;53.078;18.248;2023-03-19T11:26:02;101251.88;;;19.71;35.38
38163;BME280;23977;53.078;18.248;2023-03-19T11:28:41;101058.78;;;18.35;35.24
38163;BME280;23977;53.078;18.248;2023-03-19T11:31:26;101004.44;;;18.05;36.26
38163;BME280;23977;53.078;18.248;2023-03-19T11:34:14;101239.03;;;20.00;36.42
38163;BME280;23977;53.078;18.248;2023-03-19T11:37:07;101034.84;;;18.87;34.94
38163;BME280;23977;53.078;18.248;2023-03-19T11:40:15;101233.56;;;20.27;35.09
38163;BME280;23977;53.078;18.248;2023-03-19T11:43:55;101233.41;;;20.60;35.42
38163;BME280;23977;53.078;18.248;2023-03-19T11:47:03;101239.97;;;20.84;34.88
38163;BME280;23977;53.078;18.248;2023-03-19T11:53:39;101228.94;;;21.18;33.83
38163;BME280;23977;53.078;18.248;2023-03-19T11:56:30;101231.63;;;21.18;34.84
38163;BME280;23977;53.078;18.248;2023-03-19T11:59:52;101234.53;;;20.91;34.85
38163;BME280;23977;53.078;18.248;2023-03-19T12:04:05;101128.25;;;20.00;35.17
38163;BME280;23977;53.078;18.248;2023-03-19T12:13:26;101236.53;;;19.92;37.25
38163;BME280;23977;53.078;18.248;2023-03-19T12:22:38;101059.88;;;18.74;36.72
38163;BME280;23977;53.078;18.248;2023-03-19T12:25:50;101131.50;;;19.23;36.97
38163;BME280;23977;53.078;18.248;2023-03-19T12:28:47;101230.69;;;19.88;37.91
38163;BME280;23977;53.078;18.248;2023-03-19T12:32:03;101223.06;;;19.78;38.96
38163;BME280;23977;53.078;18.248;2023-03-19T12:34:51;101236.13;;;19.75;39.16
38163;BME280;23977;53.078;18.248;2023-03-19T12:37:40;101225.31;;;19.62;38.42
38163;BME280;23977;53.078;18.248;2023-03-19T12:43:03;100958.63;;;17.91;38.62
38163;BME280;23977;53.078;18.248;2023-03-19T12:45:43;101151.22;;;19.17;38.70
38163;BME280;23977;53.078;18.248;2023-03-19T12:48:47;101200.59;;;19.51;39.32
38163;BME280;23977;53.078;18.248;2023-03-19T12:51:29;101085.81;;;18.75;38.29
38163;BME280;23977;53.078;18.248;2023-03-19T12:54:28;101100.38;;;19.01;38.22
38163;BME280;23977;53.078;18.248;2023-03-19T13:03:52;101085.81;;;18.75;38.07
38163;BME280;23977;53.078;18.248;2023-03-19T13:06:43;101016.69;;;18.07;39.38
38163;BME280;23977;53.078;18.248;2023-03-19T13:09:36;101214.50;;;19.21;40.72
38163;BME280;23977;53.078;18.248;2023-03-19T13:12:09;101213.28;;;19.31;40.24
38163;BME280;23977;53.078;18.248;2023-03-19T13:15:30;101203.31;;;19.18;40.56
38163;BME280;23977;53.078;18.248;2023-03-19T13:21:52;101207.88;;;19.17;39.90
38163;BME280;23977;53.078;18.248;2023-03-19T13:24:32;101208.28;;;19.28;38.81
38163;BME280;23977;53.078;18.248;2023-03-19T13:27:06;100972.88;;;17.79;39.52
38163;BME280;23977;53.078;18.248;2023-03-19T13:30:00;101158.03;;;18.93;40.19
38163;BME280;23977;53.078;18.248;2023-03-19T13:38:18;101060.84;;;18.20;40.43
38163;BME280;23977;53.078;18.248;2023-03-19T13:52:47;101216.84;;;18.63;41.77
38163;BME280;23977;53.078;18.248;2023-03-19T13:57:58;101085.09;;;17.78;42.74
38163;BME280;23977;53.078;18.248;2023-03-19T14:03:28;101214.72;;;18.52;42.50
38163;BME280;23977;53.078;18.248;2023-03-19T14:06:01;100935.25;;;16.67;42.15
38163;BME280;23977;53.078;18.248;2023-03-19T14:08:31;101075.91;;;17.59;42.44
38163;BME280;23977;53.078;18.248;2023-03-19T14:11:07;101015.44;;;17.20;42.79
38163;BME280;23977;53.078;18.248;2023-03-19T14:13:37;101122.75;;;17.71;42.72
38163;BME280;23977;53.078;18.248;2023-03-19T14:16:11;100871.22;;;16.14;43.10
38163;BME280;23977;53.078;18.248;2023-03-19T14:18:43;101124.25;;;17.81;43.21
38163;BME280;23977;53.078;18.248;2023-03-19T14:22:06;100845.00;;;16.16;43.29
38163;BME280;23977;53.078;18.248;2023-03-19T14:24:28;101202.75;;;18.12;42.74
38163;BME280;23977;53.078;18.248;2023-03-19T14:27:02;101001.06;;;16.78;43.53
38163;BME280;23977;53.078;18.248;2023-03-19T14:29:41;100988.22;;;16.52;44.16
38163;BME280;23977;53.078;18.248;2023-03-19T14:32:14;100991.06;;;16.43;44.59
38163;BME280;23977;53.078;18.248;2023-03-19T14:34:42;100915.56;;;15.88;45.31
38163;BME280;23977;53.078;18.248;2023-03-19T14:37:24;101202.69;;;17.71;45.00
38163;BME280;23977;53.078;18.248;2023-03-19T14:40:18;101188.16;;;17.65;45.00
38163;BME280;23977;53.078;18.248;2023-03-19T14:45:37;101078.75;;;16.94;45.13
38163;BME280;23977;53.078;18.248;2023-03-19T14:56:30;100895.97;;;15.51;46.13
38163;BME280;23977;53.078;18.248;2023-03-19T14:59:00;100969.50;;;15.94;46.04
38163;BME280;23977;53.078;18.248;2023-03-19T15:01:33;100895.06;;;15.44;46.71
38163;BME280;23977;53.078;18.248;2023-03-19T15:04:13;101038.06;;;16.33;46.98
38163;BME280;23977;53.078;18.248;2023-03-19T15:06:43;100987.59;;;15.70;46.47
38163;BME280;23977;53.078;18.248;2023-03-19T15:09:18;100869.25;;;14.92;47.11
38163;BME280;23977;53.078;18.248;2023-03-19T15:12:16;101180.56;;;16.82;47.60
38163;BME280;23977;53.078;18.248;2023-03-19T15:17:18;101168.56;;;16.63;47.88
38163;BME280;23977;53.078;18.248;2023-03-19T15:19:46;100991.59;;;15.44;47.63
38163;BME280;23977;53.078;18.248;2023-03-19T15:22:22;100958.34;;;15.09;47.47
38163;BME280;23977;53.078;18.248;2023-03-19T15:24:51;101177.06;;;16.45;49.06
38163;BME280;23977;53.078;18.248;2023-03-19T15:27:22;101047.84;;;15.52;49.52
38163;BME280;23977;53.078;18.248;2023-03-19T15:29:49;100989.75;;;15.00;49.65
38163;BME280;23977;53.078;18.248;2023-03-19T15:32:36;100935.31;;;14.70;49.66
38163;BME280;23977;53.078;18.248;2023-03-19T15:35:04;100924.84;;;14.37;50.64
38163;BME280;23977;53.078;18.248;2023-03-19T15:37:36;101203.69;;;15.96;51.05
38163;BME280;23977;53.078;18.248;2023-03-19T15:40:08;100917.94;;;14.04;51.51
38163;BME280;23977;53.078;18.248;2023-03-19T15:42:37;100820.72;;;13.51;51.20
38163;BME280;23977;53.078;18.248;2023-03-19T15:45:09;101057.84;;;14.91;51.57
38163;BME280;23977;53.078;18.248;2023-03-19T15:47:47;100893.50;;;13.61;52.29
38163;BME280;23977;53.078;18.248;2023-03-19T15:50:19;100993.66;;;14.13;52.80
38163;BME280;23977;53.078;18.248;2023-03-19T15:52:52;101196.16;;;15.38;52.79
38163;BME280;23977;53.078;18.248;2023-03-19T15:55:22;101156.38;;;15.04;52.86
38163;BME280;23977;53.078;18.248;2023-03-19T15:57:52;100998.63;;;13.93;53.51
38163;BME280;23977;53.078;18.248;2023-03-19T16:00:20;101213.53;;;15.04;54.40
38163;BME280;23977;53.078;18.248;2023-03-19T16:02:49;101217.91;;;14.97;55.03
38163;BME280;23977;53.078;18.248;2023-03-19T16:05:27;101091.53;;;14.07;55.31
38163;BME280;23977;53.078;18.248;2023-03-19T16:07:59;100865.69;;;12.52;56.15
38163;BME280;23977;53.078;18.248;2023-03-19T16:12:54;100951.56;;;12.88;57.26
38163;BME280;23977;53.078;18.248;2023-03-19T16:15:41;100869.59;;;12.25;57.59
38163;BME280;23977;53.078;18.248;2023-03-19T16:21:02;100861.19;;;11.70;59.28
38163;BME280;23977;53.078;18.248;2023-03-19T16:26:22;101225.75;;;13.72;60.54
38163;BME280;23977;53.078;18.248;2023-03-19T16:31:51;101121.19;;;12.84;61.70
38163;BME280;23977;53.078;18.248;2023-03-19T16:37:25;101188.50;;;13.04;64.06
38163;BME280;23977;53.078;18.248;2023-03-19T16:39:57;100915.09;;;11.31;64.55
38163;BME280;23977;53.078;18.248;2023-03-19T16:47:58;101016.66;;;11.71;65.97
38163;BME280;23977;53.078;18.248;2023-03-19T16:50:36;101091.31;;;12.05;66.33
38163;BME280;23977;53.078;18.248;2023-03-19T16:53:13;101095.34;;;12.09;66.82
38163;BME280;23977;53.078;18.248;2023-03-19T16:55:47;100944.75;;;11.02;67.69
38163;BME280;23977;53.078;18.248;2023-03-19T16:58:16;100875.75;;;10.48;68.19
38163;BME280;23977;53.078;18.248;2023-03-19T17:00:46;100873.53;;;10.25;68.97
38163;BME280;23977;53.078;18.248;2023-03-19T17:03:16;101032.84;;;11.08;69.47
38163;BME280;23977;53.078;18.248;2023-03-19T17:05:46;100957.22;;;10.49;70.81
38163;BME280;23977;53.078;18.248;2023-03-19T17:08:13;100981.66;;;10.70;72.28
38163;BME280;23977;53.078;18.248;2023-03-19T17:10:45;100914.09;;;10.01;72.48
38163;BME280;23977;53.078;18.248;2023-03-19T17:13:17;101000.09;;;10.46;73.34
38163;BME280;23977;53.078;18.248;2023-03-19T17:15:46;101244.34;;;11.96;74.72
38163;BME280;23977;53.078;18.248;2023-03-19T17:18:21;101060.59;;;10.80;74.81
38163;BME280;23977;53.078;18.248;2023-03-19T17:21:03;100904.03;;;9.77;74.80
38163;BME280;23977;53.078;18.248;2023-03-19T17:23:33;101024.97;;;10.54;74.57
38163;BME280;23977;53.078;18.248;2023-03-19T17:26:00;101252.88;;;11.81;75.13
38163;BME280;23977;53.078;18.248;2023-03-19T17:28:30;100905.63;;;9.52;76.34
38163;BME280;23977;53.078;18.248;2023-03-19T17:30:57;100956.19;;;9.60;77.23
38163;BME280;23977;53.078;18.248;2023-03-19T17:33:26;101046.78;;;10.12;77.76
38163;BME280;23977;53.078;18.248;2023-03-19T17:35:56;100974.41;;;9.55;79.27
38163;BME280;23977;53.078;18.248;2023-03-19T17:38:31;101146.69;;;10.70;80.14
38163;BME280;23977;53.078;18.248;2023-03-19T17:41:04;101175.69;;;10.91;80.50
38163;BME280;23977;53.078;18.248;2023-03-19T17:43:36;101022.75;;;9.86;80.44